createdAt,value
2023-05-08T00:00:03.458Z,9.80
2023-05-08T00:01:03.494Z,9.40
2023-05-08T00:02:03.382Z,9.60
2023-05-08T00:03:03.548Z,9.30
2023-05-08T00:04:03.578Z,9.90
2023-05-08T00:05:03.374Z,10.00
2023-05-08T00:06:03.355Z,9.20
2023-05-08T00:07:03.400Z,9.80
2023-05-08T00:08:03.362Z,9.80
2023-05-08T00:09:03.416Z,10.20
2023-05-08T00:10:03.321Z,9.80
2023-05-08T00:11:03.321Z,9.80
2023-05-08T00:12:03.353Z,9.80
2023-05-08T00:13:03.560Z,9.70
2023-05-08T00:14:03.265Z,10.00
2023-05-08T00:15:03.243Z,9.80
2023-05-08T00:16:03.247Z,10.10
2023-05-08T00:17:03.275Z,10.10
2023-05-08T00:18:03.314Z,9.90
2023-05-08T00:19:03.188Z,9.10
2023-05-08T00:20:03.211Z,9.40
2023-05-08T00:21:03.213Z,9.50
2023-05-08T00:22:03.159Z,9.50
2023-05-08T00:23:04.239Z,9.70
2023-05-08T00:24:03.177Z,9.70
2023-05-08T00:25:03.135Z,9.70
2023-05-08T00:26:03.135Z,9.70
2023-05-08T00:27:03.171Z,9.90
2023-05-08T00:28:03.124Z,9.90
2023-05-08T00:29:05.000Z,9.40
2023-05-08T00:30:03.115Z,9.80
2023-05-08T00:31:03.061Z,9.60
2023-05-08T00:32:03.129Z,10.00
2023-05-08T00:33:03.093Z,9.40
2023-05-08T00:34:03.067Z,9.30
2023-05-08T00:35:03.029Z,10.10
2023-05-08T00:36:03.107Z,9.90
2023-05-08T00:37:03.023Z,9.10
2023-05-08T00:38:03.010Z,9.40
2023-05-08T00:39:02.982Z,9.20
2023-05-08T00:40:03.005Z,10.00
2023-05-08T00:41:03.045Z,9.70
2023-05-08T00:42:02.988Z,9.30
2023-05-08T00:43:03.000Z,9.40
2023-05-08T00:44:02.961Z,9.60
2023-05-08T00:45:02.920Z,9.30
2023-05-08T00:46:03.011Z,9.60
2023-05-08T00:47:02.883Z,9.60
2023-05-08T00:48:02.932Z,9.20
2023-05-08T00:49:02.895Z,9.70
2023-05-08T00:50:02.919Z,9.30
2023-05-08T00:51:02.860Z,9.70
2023-05-08T00:52:02.924Z,9.50
2023-05-08T00:53:02.855Z,9.30
2023-05-08T00:54:02.816Z,9.90
2023-05-08T00:55:02.807Z,9.90
2023-05-08T00:56:03.396Z,10.00
2023-05-08T00:57:02.824Z,9.30
2023-05-08T00:58:02.780Z,9.80
2023-05-08T00:59:02.762Z,9.70
2023-05-08T01:00:02.788Z,9.30
2023-05-08T01:01:02.817Z,9.10
2023-05-08T01:02:02.819Z,9.40
2023-05-08T01:03:02.855Z,8.90
2023-05-08T01:04:02.752Z,9.10
2023-05-08T01:05:02.692Z,8.70
2023-05-08T01:06:02.707Z,9.20
2023-05-08T01:07:02.721Z,9.20
2023-05-08T01:08:02.737Z,9.20
2023-05-08T01:09:02.741Z,9.00
2023-05-08T01:10:02.775Z,9.30
2023-05-08T01:11:02.648Z,8.80
2023-05-08T01:12:02.678Z,9.30
2023-05-08T01:13:03.534Z,9.70
2023-05-08T01:14:02.652Z,9.00
2023-05-08T01:15:02.599Z,9.40
2023-05-08T01:16:02.608Z,9.40
2023-05-08T01:17:02.644Z,9.20
2023-05-08T01:18:02.580Z,10.40
2023-05-08T01:19:02.608Z,10.20
2023-05-08T01:20:02.632Z,9.40
2023-05-08T01:21:03.412Z,8.80
2023-05-08T01:22:02.604Z,9.00
2023-05-08T01:23:02.598Z,9.40
2023-05-08T01:24:02.496Z,9.40
2023-05-08T01:25:02.477Z,8.90
2023-05-08T01:26:02.550Z,9.20
2023-05-08T01:27:02.516Z,9.80
2023-05-08T01:28:02.433Z,9.50
2023-05-08T01:29:02.458Z,9.10
2023-05-08T01:30:02.437Z,9.90
2023-05-08T01:31:02.461Z,9.60
2023-05-08T01:32:02.522Z,9.40
2023-05-08T01:33:02.504Z,9.40
2023-05-08T01:34:02.468Z,9.40
2023-05-08T01:35:02.398Z,10.00
2023-05-08T01:36:02.427Z,9.90
2023-05-08T01:37:02.391Z,9.60
2023-05-08T01:38:02.394Z,10.00
2023-05-08T01:39:02.350Z,10.00
2023-05-08T01:40:02.387Z,10.00
2023-05-08T01:41:02.378Z,10.60
2023-05-08T01:42:02.344Z,10.20
2023-05-08T01:43:02.327Z,10.00
2023-05-08T01:44:02.314Z,9.70
2023-05-08T01:45:02.339Z,10.20
2023-05-08T01:46:02.282Z,10.10
2023-05-08T01:47:02.349Z,10.10
2023-05-08T01:48:02.358Z,10.20
2023-05-08T01:49:02.239Z,10.10
2023-05-08T01:50:02.246Z,10.40
2023-05-08T01:51:02.214Z,10.30
2023-05-08T01:52:02.240Z,10.50
2023-05-08T01:53:02.204Z,10.20
2023-05-08T01:54:02.192Z,9.90
2023-05-08T01:55:02.209Z,10.20
2023-05-08T01:56:02.177Z,10.10
2023-05-08T01:57:02.161Z,10.50
2023-05-08T01:58:02.177Z,10.00
2023-05-08T01:59:02.241Z,10.30
2023-05-08T02:00:02.156Z,10.30
2023-05-08T02:01:02.172Z,10.60
2023-05-08T02:02:02.187Z,10.90
2023-05-08T02:03:02.097Z,10.30
2023-05-08T02:04:02.100Z,10.30
2023-05-08T02:05:02.078Z,10.30
2023-05-08T02:06:02.027Z,10.40
2023-05-08T02:07:02.059Z,10.80
2023-05-08T02:08:02.042Z,10.40
2023-05-08T02:09:02.038Z,11.20
2023-05-08T02:10:02.033Z,10.60
2023-05-08T02:11:02.003Z,10.50
2023-05-08T02:12:02.013Z,10.90
2023-05-08T02:13:02.018Z,10.20
2023-05-08T02:14:01.966Z,10.60
2023-05-08T02:15:02.004Z,10.10
2023-05-08T02:16:01.964Z,10.60
2023-05-08T02:17:02.020Z,10.20
2023-05-08T02:18:01.981Z,10.10
2023-05-08T02:19:01.919Z,10.30
2023-05-08T02:20:01.923Z,10.80
2023-05-08T02:21:02.020Z,11.20
2023-05-08T02:22:02.490Z,10.80
2023-05-08T02:23:01.856Z,11.00
2023-05-08T02:24:01.871Z,10.70
2023-05-08T02:25:01.868Z,11.00
2023-05-08T02:26:01.865Z,11.00
2023-05-08T02:27:01.820Z,11.60
2023-05-08T02:28:01.809Z,11.30
2023-05-08T02:29:01.821Z,10.80
2023-05-08T02:30:01.835Z,10.90
2023-05-08T02:31:01.812Z,11.30
2023-05-08T02:32:01.823Z,11.20
2023-05-08T02:33:01.802Z,11.00
2023-05-08T02:34:01.778Z,11.20
2023-05-08T02:35:03.636Z,11.00
2023-05-08T02:36:02.753Z,11.20
2023-05-08T02:37:02.475Z,11.20
2023-05-08T02:38:01.717Z,11.80
2023-05-08T02:39:02.529Z,11.10
2023-05-08T02:40:01.678Z,11.80
2023-05-08T02:41:01.690Z,12.10
2023-05-08T02:42:01.690Z,11.90
2023-05-08T02:43:01.656Z,11.50
2023-05-08T02:44:01.646Z,12.00
2023-05-08T02:45:01.705Z,11.80
2023-05-08T02:46:01.660Z,11.40
2023-05-08T02:47:01.655Z,11.80
2023-05-08T02:48:01.609Z,11.60
2023-05-08T02:49:01.574Z,11.80
2023-05-08T02:50:01.656Z,11.50
2023-05-08T02:51:01.618Z,11.90
2023-05-08T02:52:01.554Z,11.70
2023-05-08T02:53:01.570Z,12.30
2023-05-08T02:54:01.524Z,12.20
2023-05-08T02:55:01.570Z,12.10
2023-05-08T02:56:01.529Z,11.80
2023-05-08T02:57:01.498Z,11.70
2023-05-08T02:58:01.511Z,12.30
2023-05-08T02:59:01.504Z,12.00
2023-05-08T03:00:01.449Z,12.00
2023-05-08T03:01:01.497Z,12.30
2023-05-08T03:02:01.576Z,11.30
2023-05-08T03:03:01.556Z,11.50
2023-05-08T03:04:01.533Z,11.60
2023-05-08T03:05:01.383Z,11.40
2023-05-08T03:06:01.431Z,11.80
2023-05-08T03:07:01.486Z,11.60
2023-05-08T03:08:01.492Z,12.00
2023-05-08T03:09:01.405Z,11.90
2023-05-08T03:10:01.376Z,11.70
2023-05-08T03:11:01.337Z,12.10
2023-05-08T03:12:01.333Z,11.50
2023-05-08T03:13:01.381Z,11.80
2023-05-08T03:14:01.325Z,11.40
2023-05-08T03:15:01.325Z,11.40
2023-05-08T03:16:01.356Z,11.70
2023-05-08T03:17:01.292Z,11.80
2023-05-08T03:18:01.353Z,11.50
2023-05-08T03:19:01.256Z,11.50
2023-05-08T03:20:01.249Z,11.60
2023-05-08T03:21:01.214Z,11.90
2023-05-08T03:22:01.408Z,11.30
2023-05-08T03:23:01.381Z,12.00
2023-05-08T03:24:01.243Z,11.80
2023-05-08T03:25:01.251Z,11.50
2023-05-08T03:26:01.159Z,11.40
2023-05-08T03:27:01.189Z,11.30
2023-05-08T03:28:01.260Z,11.60
2023-05-08T03:29:01.237Z,11.30
2023-05-08T03:30:01.116Z,11.70
2023-05-08T03:31:01.175Z,11.70
2023-05-08T03:32:01.117Z,11.50
2023-05-08T03:33:01.117Z,12.20
2023-05-08T03:34:01.098Z,12.20
2023-05-08T03:35:01.159Z,11.40
2023-05-08T03:36:01.299Z,11.40
2023-05-08T03:37:01.106Z,11.80
2023-05-08T03:38:01.039Z,11.80
2023-05-08T03:39:01.047Z,12.40
2023-05-08T03:40:01.042Z,12.10
2023-05-08T03:41:01.086Z,12.00
2023-05-08T03:42:01.047Z,12.00
2023-05-08T03:43:01.001Z,11.30
2023-05-08T03:44:00.981Z,12.20
2023-05-08T03:45:00.970Z,12.00
2023-05-08T03:46:02.058Z,12.00
2023-05-08T03:47:02.178Z,11.50
2023-05-08T03:48:00.996Z,11.90
2023-05-08T03:49:00.908Z,12.00
2023-05-08T03:50:00.892Z,11.60
2023-05-08T03:51:00.893Z,11.50
2023-05-08T03:52:01.092Z,12.00
2023-05-08T03:53:00.885Z,11.70
2023-05-08T03:54:00.927Z,11.60
2023-05-08T03:55:00.861Z,11.50
2023-05-08T03:56:00.853Z,11.50
2023-05-08T03:57:00.930Z,11.90
2023-05-08T03:58:00.896Z,12.10
2023-05-08T03:59:00.807Z,11.90
2023-05-08T04:00:00.848Z,12.10
2023-05-08T04:01:01.024Z,11.50
2023-05-08T04:02:00.841Z,11.90
2023-05-08T04:03:00.806Z,12.00
2023-05-08T04:04:00.882Z,11.40
2023-05-08T04:05:00.751Z,11.50
2023-05-08T04:06:00.800Z,12.00
2023-05-08T04:07:00.810Z,11.80
2023-05-08T04:08:00.780Z,11.80
2023-05-08T04:09:00.807Z,11.90
2023-05-08T04:10:01.196Z,12.20
2023-05-08T04:11:02.804Z,11.90
2023-05-08T04:12:02.634Z,11.90
2023-05-08T04:13:00.802Z,12.40
2023-05-08T04:14:00.730Z,11.90
2023-05-08T04:15:00.675Z,12.20
2023-05-08T04:16:00.682Z,11.40
2023-05-08T04:17:00.713Z,11.90
2023-05-08T04:18:00.722Z,11.50
2023-05-08T04:19:00.657Z,11.40
2023-05-08T04:20:00.670Z,11.40
2023-05-08T04:21:00.605Z,11.70
2023-05-08T04:22:00.596Z,11.40
2023-05-08T04:23:00.648Z,12.40
2023-05-08T04:24:00.591Z,12.00
2023-05-08T04:25:00.598Z,12.00
2023-05-08T04:26:00.571Z,11.70
2023-05-08T04:27:00.682Z,12.20
2023-05-08T04:28:00.509Z,11.70
2023-05-08T04:29:00.610Z,11.60
2023-05-08T04:30:00.560Z,12.10
2023-05-08T04:31:00.544Z,11.80
2023-05-08T04:32:00.569Z,11.60
2023-05-08T04:33:00.605Z,12.00
2023-05-08T04:34:00.492Z,11.30
2023-05-08T04:35:00.536Z,11.60
2023-05-08T04:36:00.502Z,11.70
2023-05-08T04:37:00.481Z,11.30
2023-05-08T04:38:00.411Z,11.80
2023-05-08T04:39:00.478Z,11.90
2023-05-08T04:40:00.421Z,12.10
2023-05-08T04:41:01.220Z,11.70
2023-05-08T04:42:00.450Z,11.30
2023-05-08T04:43:01.032Z,11.80
2023-05-08T04:44:03.005Z,11.20
2023-05-08T04:45:00.836Z,11.80
2023-05-08T04:46:00.687Z,10.90
2023-05-08T04:47:00.346Z,11.60
2023-05-08T04:48:00.476Z,11.50
2023-05-08T04:49:00.321Z,12.00
2023-05-08T04:50:02.771Z,12.00
2023-05-08T04:51:01.363Z,12.00
2023-05-08T04:52:00.276Z,12.30
2023-05-08T04:53:01.050Z,12.40
2023-05-08T04:54:00.328Z,12.70
2023-05-08T04:55:01.456Z,12.50
2023-05-08T04:56:02.447Z,12.10
2023-05-08T04:57:03.807Z,12.20
2023-05-08T04:58:04.188Z,12.50
2023-05-08T04:59:03.545Z,12.10
2023-05-08T05:00:02.568Z,11.90
2023-05-08T05:01:02.638Z,12.10
2023-05-08T05:02:03.010Z,11.70
2023-05-08T05:03:01.220Z,12.10
2023-05-08T05:04:02.237Z,11.60
2023-05-08T05:05:00.421Z,11.50
2023-05-08T05:06:00.205Z,10.90
2023-05-08T05:07:00.168Z,11.70
2023-05-08T05:08:00.132Z,12.00
2023-05-08T05:09:00.142Z,11.90
2023-05-08T05:10:00.592Z,11.30
2023-05-08T05:11:02.172Z,11.80
2023-05-08T05:12:00.780Z,12.10
2023-05-08T05:13:00.159Z,11.30
2023-05-08T05:14:00.045Z,12.30
2023-05-08T05:15:00.048Z,11.70
2023-05-08T05:16:00.166Z,12.60
2023-05-08T05:17:00.010Z,12.20
2023-05-08T05:18:00.009Z,12.00
2023-05-08T05:19:00.005Z,12.20
2023-05-08T05:20:00.014Z,11.60
2023-05-08T05:21:00.038Z,12.10
2023-05-08T05:22:01.668Z,12.00
2023-05-08T05:23:00.902Z,11.80
2023-05-08T05:24:02.903Z,11.90
2023-05-08T05:25:02.987Z,11.90
2023-05-08T05:25:59.950Z,11.00
2023-05-08T05:26:59.890Z,11.70
2023-05-08T05:27:59.909Z,10.90
2023-05-08T05:28:59.927Z,10.50
2023-05-08T05:30:00.347Z,10.70
2023-05-08T05:31:01.159Z,10.60
2023-05-08T05:32:01.506Z,10.50
2023-05-08T05:32:59.876Z,11.00
2023-05-08T05:34:01.999Z,11.00
2023-05-08T05:35:01.780Z,11.00
2023-05-08T05:35:59.834Z,10.10
2023-05-08T05:36:59.828Z,10.30
2023-05-08T05:37:59.793Z,10.80
2023-05-08T05:38:59.783Z,10.80
2023-05-08T05:39:59.704Z,10.50
2023-05-08T05:41:01.601Z,10.90
2023-05-08T05:42:04.280Z,10.60
2023-05-08T05:43:01.994Z,10.50
2023-05-08T05:43:59.892Z,10.90
2023-05-08T05:44:59.690Z,10.30
2023-05-08T05:45:59.685Z,10.20
2023-05-08T05:46:59.737Z,10.70
2023-05-08T05:48:00.134Z,10.40
2023-05-08T05:48:59.659Z,11.20
2023-05-08T05:49:59.675Z,10.20
2023-05-08T05:50:59.638Z,10.70
2023-05-08T05:51:59.617Z,10.20
2023-05-08T05:52:59.595Z,10.30
2023-05-08T05:54:00.108Z,10.90
2023-05-08T05:54:59.609Z,9.80
2023-05-08T05:56:01.949Z,10.10
2023-05-08T05:57:02.752Z,10.10
2023-05-08T05:58:00.910Z,9.50
2023-05-08T05:58:59.661Z,10.00
2023-05-08T05:59:59.592Z,9.10
2023-05-08T06:00:59.489Z,9.90
2023-05-08T06:01:59.637Z,9.60
2023-05-08T06:02:59.690Z,10.00
2023-05-08T06:03:59.557Z,10.40
2023-05-08T06:04:59.490Z,9.70
2023-05-08T06:05:59.932Z,9.20
2023-05-08T06:06:59.497Z,9.80
2023-05-08T06:07:59.570Z,10.10
2023-05-08T06:09:00.140Z,9.90
2023-05-08T06:10:02.254Z,9.50
2023-05-08T06:11:00.801Z,9.60
2023-05-08T06:11:59.456Z,9.70
2023-05-08T06:13:00.724Z,9.40
2023-05-08T06:14:01.033Z,10.20
2023-05-08T06:15:02.211Z,9.60
2023-05-08T06:16:00.915Z,9.90
2023-05-08T06:17:00.914Z,9.40
2023-05-08T06:18:01.122Z,9.40
2023-05-08T06:18:59.349Z,9.90
2023-05-08T06:20:00.971Z,9.50
2023-05-08T06:20:59.318Z,9.60
2023-05-08T06:21:59.353Z,9.40
2023-05-08T06:22:59.270Z,9.80
2023-05-08T06:23:59.269Z,10.00
2023-05-08T06:24:59.274Z,10.20
2023-05-08T06:25:59.392Z,9.90
2023-05-08T06:27:02.623Z,10.30
2023-05-08T06:28:01.347Z,10.00
2023-05-08T06:28:59.238Z,10.00
2023-05-08T06:29:59.244Z,10.00
2023-05-08T06:30:59.532Z,10.40
2023-05-08T06:31:59.122Z,10.20
2023-05-08T06:33:00.078Z,10.40
2023-05-08T06:33:59.147Z,10.00
2023-05-08T06:34:59.143Z,10.60
2023-05-08T06:35:59.156Z,10.80
2023-05-08T06:37:31.553Z,10.30
2023-05-08T06:37:59.098Z,10.40
2023-05-08T06:39:00.130Z,11.00
2023-05-08T06:40:10.857Z,10.90
2023-05-08T06:41:01.086Z,9.60
2023-05-08T06:41:59.057Z,10.20
2023-05-08T06:43:00.119Z,10.60
2023-05-08T06:43:59.055Z,10.40
2023-05-08T06:44:59.117Z,10.50
2023-05-08T06:45:59.030Z,10.50
2023-05-08T06:46:59.065Z,10.70
2023-05-08T06:47:59.072Z,10.20
2023-05-08T06:48:59.045Z,9.80
2023-05-08T06:49:59.002Z,9.50
2023-05-08T06:50:59.056Z,10.10
2023-05-08T06:52:00.307Z,10.30
2023-05-08T06:52:58.957Z,9.80
2023-05-08T06:53:58.958Z,9.90
2023-05-08T06:54:59.497Z,9.80
2023-05-08T06:56:00.114Z,9.90
2023-05-08T06:57:01.062Z,9.90
2023-05-08T06:57:58.955Z,9.80
2023-05-08T06:59:07.862Z,10.40
2023-05-08T07:00:01.033Z,9.30
2023-05-08T07:01:02.104Z,9.10
2023-05-08T07:02:03.425Z,9.20
2023-05-08T07:03:01.023Z,9.00
2023-05-08T07:03:59.558Z,9.20
2023-05-08T07:04:58.844Z,8.90
2023-05-08T07:05:58.770Z,8.70
2023-05-08T07:06:59.406Z,9.10
2023-05-08T07:07:58.852Z,9.10
2023-05-08T07:08:58.777Z,8.60
2023-05-08T07:09:58.759Z,8.30
2023-05-08T07:10:58.784Z,9.00
2023-05-08T07:11:58.726Z,9.00
2023-05-08T07:12:58.754Z,8.60
2023-05-08T07:13:58.713Z,8.90
2023-05-08T07:14:58.741Z,8.80
2023-05-08T07:15:58.725Z,8.80
2023-05-08T07:16:58.761Z,9.00
2023-05-08T07:17:58.693Z,8.60
2023-05-08T07:18:58.633Z,8.80
2023-05-08T07:19:58.688Z,8.70
2023-05-08T07:20:58.632Z,9.40
2023-05-08T07:21:58.637Z,9.10
2023-05-08T07:22:58.626Z,9.60
2023-05-08T07:23:58.685Z,9.30
2023-05-08T07:24:58.606Z,8.80
2023-05-08T07:25:58.564Z,8.80
2023-05-08T07:26:58.564Z,9.10
2023-05-08T07:28:00.488Z,8.70
2023-05-08T07:28:59.564Z,9.00
2023-05-08T07:29:58.537Z,8.70
2023-05-08T07:30:59.508Z,8.90
2023-05-08T07:31:58.675Z,8.80
2023-05-08T07:32:58.612Z,8.30
2023-05-08T07:33:58.505Z,8.80
2023-05-08T07:34:58.459Z,8.70
2023-05-08T07:35:58.541Z,8.90
2023-05-08T07:36:58.468Z,9.40
2023-05-08T07:37:58.564Z,8.50
2023-05-08T07:38:58.407Z,9.20
2023-05-08T07:39:58.492Z,8.90
2023-05-08T07:40:58.419Z,8.90
2023-05-08T07:41:58.464Z,8.60
2023-05-08T07:42:58.386Z,8.50
2023-05-08T07:43:58.398Z,9.20
2023-05-08T07:44:58.366Z,8.30
2023-05-08T07:45:58.358Z,8.80
2023-05-08T07:46:58.369Z,8.80
2023-05-08T07:47:58.425Z,9.60
2023-05-08T07:48:59.006Z,9.20
2023-05-08T07:49:58.374Z,9.30
2023-05-08T07:50:58.327Z,9.20
2023-05-08T07:51:58.361Z,9.20
2023-05-08T07:52:58.340Z,9.20
2023-05-08T07:53:58.309Z,9.40
2023-05-08T07:54:58.216Z,9.00
2023-05-08T07:55:58.956Z,9.40
2023-05-08T07:56:58.247Z,9.10
2023-05-08T07:57:58.269Z,9.40
2023-05-08T07:58:58.248Z,8.90
2023-05-08T07:59:58.194Z,8.90
2023-05-08T08:00:58.197Z,9.30
2023-05-08T08:01:59.035Z,9.10
2023-05-08T08:02:58.260Z,9.20
2023-05-08T08:03:58.291Z,8.70
2023-05-08T08:04:58.178Z,9.20
2023-05-08T08:05:58.148Z,9.40
2023-05-08T08:06:58.113Z,8.80
2023-05-08T08:07:58.148Z,9.40
2023-05-08T08:08:58.126Z,9.70
2023-05-08T08:09:58.086Z,9.20
2023-05-08T08:10:58.089Z,9.10
2023-05-08T08:11:58.069Z,9.20
2023-05-08T08:12:58.101Z,8.80
2023-05-08T08:13:58.042Z,8.70
2023-05-08T08:14:58.027Z,9.40
2023-05-08T08:15:58.015Z,9.20
2023-05-08T08:16:58.008Z,9.50
2023-05-08T08:17:59.049Z,9.10
2023-05-08T08:18:58.024Z,9.10
2023-05-08T08:19:58.097Z,9.00
2023-05-08T08:20:57.982Z,9.20
2023-05-08T08:21:57.951Z,9.90
2023-05-08T08:22:57.963Z,9.20
2023-05-08T08:23:57.916Z,10.50
2023-05-08T08:24:57.946Z,10.20
2023-05-08T08:25:57.896Z,9.80
2023-05-08T08:26:57.942Z,9.20
2023-05-08T08:27:58.022Z,9.00
2023-05-08T08:28:57.897Z,9.00
2023-05-08T08:30:12.967Z,9.10
2023-05-08T08:30:59.951Z,9.20
2023-05-08T08:31:57.850Z,8.70
2023-05-08T08:32:57.894Z,9.30
2023-05-08T08:33:57.843Z,9.00
2023-05-08T08:34:58.393Z,8.60
2023-05-08T08:35:57.884Z,9.30
2023-05-08T08:36:57.833Z,9.10
2023-05-08T08:37:57.779Z,9.50
2023-05-08T08:38:57.874Z,9.90
2023-05-08T08:39:57.832Z,9.80
2023-05-08T08:40:57.811Z,10.10
2023-05-08T08:41:57.793Z,9.80
2023-05-08T08:42:57.723Z,10.40
2023-05-08T08:43:57.749Z,9.20
2023-05-08T08:44:57.803Z,9.70
2023-05-08T08:45:57.712Z,10.10
2023-05-08T08:46:57.713Z,9.90
2023-05-08T08:47:57.748Z,10.10
2023-05-08T08:48:57.688Z,10.00
2023-05-08T08:49:57.706Z,10.20
2023-05-08T08:50:57.660Z,9.50
2023-05-08T08:51:57.708Z,10.20
2023-05-08T08:52:57.619Z,10.40
2023-05-08T08:53:57.624Z,10.00
2023-05-08T08:54:57.630Z,9.70
2023-05-08T08:55:57.605Z,9.50
2023-05-08T08:56:58.594Z,9.70
2023-05-08T08:57:57.656Z,9.70
2023-05-08T08:58:57.650Z,9.80
2023-05-08T08:59:57.650Z,9.70
2023-05-08T09:01:30.048Z,10.00
2023-05-08T09:01:57.714Z,9.90
2023-05-08T09:02:57.666Z,9.60
2023-05-08T09:03:57.624Z,9.30
2023-05-08T09:04:57.746Z,9.40
2023-05-08T09:05:57.527Z,10.20
2023-05-08T09:06:57.485Z,9.40
2023-05-08T09:07:57.580Z,9.70
2023-05-08T09:08:57.466Z,9.40
2023-05-08T09:09:57.488Z,9.00
2023-05-08T09:10:57.486Z,8.50
2023-05-08T09:11:57.450Z,8.90
2023-05-08T09:12:57.495Z,8.90
2023-05-08T09:13:57.344Z,8.40
2023-05-08T09:14:57.375Z,8.70
2023-05-08T09:15:57.436Z,8.40
2023-05-08T09:16:57.940Z,8.50
2023-05-08T09:17:57.422Z,8.90
2023-05-08T09:18:57.362Z,8.40
2023-05-08T09:19:57.348Z,8.10
2023-05-08T09:20:57.339Z,8.50
2023-05-08T09:21:57.939Z,8.10
2023-05-08T09:22:57.294Z,7.90
2023-05-08T09:23:57.384Z,8.10
2023-05-08T09:24:57.297Z,8.10
2023-05-08T09:25:57.261Z,7.80
2023-05-08T09:26:57.288Z,7.50
2023-05-08T09:27:57.263Z,7.60
2023-05-08T09:28:57.231Z,7.40
2023-05-08T09:29:57.283Z,8.10
2023-05-08T09:30:58.104Z,8.30
2023-05-08T09:31:57.322Z,8.30
2023-05-08T09:32:57.220Z,7.80
2023-05-08T09:33:57.186Z,7.80
2023-05-08T09:34:57.172Z,6.90
2023-05-08T09:35:57.178Z,7.60
2023-05-08T09:36:57.145Z,7.50
2023-05-08T09:37:57.395Z,7.20
2023-05-08T09:38:58.139Z,7.10
2023-05-08T09:39:57.248Z,7.20
2023-05-08T09:40:57.147Z,6.90
2023-05-08T09:41:57.146Z,7.30
2023-05-08T09:42:57.131Z,7.30
2023-05-08T09:43:57.095Z,6.90
2023-05-08T09:44:57.097Z,7.30
2023-05-08T09:45:57.167Z,7.50
2023-05-08T09:46:57.039Z,7.70
2023-05-08T09:47:57.075Z,7.60
2023-05-08T09:48:57.045Z,7.10
2023-05-08T09:49:57.040Z,7.10
2023-05-08T09:50:57.038Z,7.80
2023-05-08T09:51:57.102Z,7.80
2023-05-08T09:52:57.941Z,7.10
2023-05-08T09:53:56.986Z,7.20
2023-05-08T09:54:56.959Z,6.90
2023-05-08T09:55:57.037Z,6.60
2023-05-08T09:56:57.005Z,7.00
2023-05-08T09:57:56.950Z,7.00
2023-05-08T09:58:56.922Z,6.70
2023-05-08T09:59:56.922Z,6.70
2023-05-08T10:00:56.953Z,6.80
2023-05-08T10:01:56.901Z,6.20
2023-05-08T10:02:56.934Z,5.90
2023-05-08T10:03:56.874Z,6.30
2023-05-08T10:04:56.936Z,5.80
2023-05-08T10:05:56.895Z,6.70
2023-05-08T10:06:56.883Z,6.20
2023-05-08T10:07:56.838Z,6.60
2023-05-08T10:09:42.532Z,6.60
2023-05-08T10:09:57.946Z,6.50
2023-05-08T10:10:56.777Z,7.00
2023-05-08T10:11:58.187Z,7.10
2023-05-08T10:12:56.882Z,6.60
2023-05-08T10:13:57.720Z,6.90
2023-05-08T10:14:56.800Z,6.90
2023-05-08T10:15:56.767Z,6.70
2023-05-08T10:16:56.778Z,6.50
2023-05-08T10:17:56.776Z,7.10
2023-05-08T10:18:56.742Z,6.20
2023-05-08T10:19:56.756Z,6.40
2023-05-08T10:20:56.751Z,6.60
2023-05-08T10:21:56.706Z,6.90
2023-05-08T10:22:56.880Z,6.70
2023-05-08T10:23:56.763Z,6.50
2023-05-08T10:24:56.650Z,6.90
2023-05-08T10:25:56.661Z,7.10
2023-05-08T10:27:06.339Z,6.60
2023-05-08T10:27:58.709Z,6.70
2023-05-08T10:28:56.648Z,6.40
2023-05-08T10:29:56.606Z,6.40
2023-05-08T10:30:56.629Z,6.90
2023-05-08T10:31:56.638Z,6.40
2023-05-08T10:32:56.649Z,6.80
2023-05-08T10:33:56.588Z,5.80
2023-05-08T10:34:56.590Z,6.40
2023-05-08T10:35:56.580Z,6.50
2023-05-08T10:36:56.597Z,7.00
2023-05-08T10:37:56.536Z,7.10
2023-05-08T10:38:56.621Z,6.60
2023-05-08T10:39:56.497Z,6.60
2023-05-08T10:40:56.506Z,6.30
2023-05-08T10:41:56.465Z,6.50
2023-05-08T10:42:56.500Z,7.10
2023-05-08T10:43:56.567Z,6.90
2023-05-08T10:44:57.103Z,6.50
2023-05-08T10:45:56.570Z,6.80
2023-05-08T10:46:56.469Z,6.70
2023-05-08T10:47:56.491Z,6.40
2023-05-08T10:48:56.444Z,6.20
2023-05-08T10:49:56.426Z,6.40
2023-05-08T10:51:37.410Z,6.60
2023-05-08T10:51:56.584Z,6.30
2023-05-08T10:52:56.415Z,6.30
2023-05-08T10:53:56.774Z,6.40
2023-05-08T10:54:56.425Z,6.50
2023-05-08T10:55:56.674Z,6.90
2023-05-08T10:56:56.324Z,6.40
2023-05-08T10:57:56.324Z,6.40
2023-05-08T10:58:56.289Z,6.50
2023-05-08T10:59:56.349Z,6.50
2023-05-08T11:00:56.302Z,6.40
2023-05-08T11:01:56.390Z,6.20
2023-05-08T11:02:57.339Z,6.30
2023-05-08T11:03:56.798Z,6.30
2023-05-08T11:04:56.214Z,5.80
2023-05-08T11:05:56.282Z,5.80
2023-05-08T11:06:56.249Z,6.10
2023-05-08T11:07:56.233Z,6.70
2023-05-08T11:08:57.311Z,6.20
2023-05-08T11:09:56.167Z,6.80
2023-05-08T11:10:56.186Z,6.50
2023-05-08T11:11:56.170Z,6.40
2023-05-08T11:12:56.206Z,6.70
2023-05-08T11:13:56.154Z,6.30
2023-05-08T11:14:56.146Z,6.00
2023-05-08T11:15:56.210Z,6.10
2023-05-08T11:16:56.111Z,6.10
2023-05-08T11:17:57.065Z,6.00
2023-05-08T11:18:56.128Z,6.00
2023-05-08T11:19:56.103Z,5.50
2023-05-08T11:20:56.089Z,5.40
2023-05-08T11:21:56.105Z,5.50
2023-05-08T11:22:56.134Z,5.60
2023-05-08T11:23:56.046Z,5.90
2023-05-08T11:24:56.025Z,5.40
2023-05-08T11:25:56.010Z,5.00
2023-05-08T11:26:56.027Z,5.30
2023-05-08T11:27:56.001Z,4.90
2023-05-08T11:28:55.944Z,5.00
2023-05-08T11:29:55.945Z,5.40
2023-05-08T11:30:55.938Z,5.40
2023-05-08T11:31:55.998Z,5.30
2023-05-08T11:32:56.094Z,4.70
2023-05-08T11:33:55.916Z,4.70
2023-05-08T11:34:55.913Z,5.30
2023-05-08T11:35:55.987Z,5.20
2023-05-08T11:36:55.905Z,5.60
2023-05-08T11:37:55.924Z,5.30
2023-05-08T11:38:56.435Z,5.10
2023-05-08T11:39:56.856Z,5.10
2023-05-08T11:40:55.836Z,5.40
2023-05-08T11:41:55.859Z,5.00
2023-05-08T11:42:55.858Z,4.90
2023-05-08T11:43:55.864Z,4.90
2023-05-08T11:44:55.953Z,4.80
2023-05-08T11:45:55.818Z,4.80
2023-05-08T11:46:55.952Z,5.20
2023-05-08T11:47:56.169Z,5.00
2023-05-08T11:48:55.813Z,5.10
2023-05-08T11:49:55.748Z,5.20
2023-05-08T11:50:55.818Z,5.10
2023-05-08T11:51:55.743Z,5.50
2023-05-08T11:52:55.741Z,5.40
2023-05-08T11:53:55.775Z,5.10
2023-05-08T11:54:55.717Z,4.80
2023-05-08T11:55:55.681Z,4.80
2023-05-08T11:56:55.663Z,4.70
2023-05-08T11:57:55.661Z,5.20
2023-05-08T11:58:55.630Z,5.00
2023-05-08T11:59:55.662Z,5.20
2023-05-08T12:00:56.492Z,5.30
2023-05-08T12:02:56.715Z,5.00
2023-05-08T12:03:55.913Z,5.40
2023-05-08T12:04:55.705Z,5.00
2023-05-08T12:05:55.595Z,5.30
2023-05-08T12:06:55.598Z,4.80
2023-05-08T12:07:55.519Z,5.00
2023-05-08T12:08:55.558Z,4.90
2023-05-08T12:09:55.543Z,4.80
2023-05-08T12:10:56.104Z,5.10
2023-05-08T12:11:55.530Z,4.90
2023-05-08T12:12:55.587Z,5.30
2023-05-08T12:13:55.492Z,4.70
2023-05-08T12:14:55.806Z,4.90
2023-05-08T12:15:55.504Z,4.40
2023-05-08T12:16:55.544Z,4.80
2023-05-08T12:17:55.510Z,5.10
2023-05-08T12:18:55.500Z,4.90
2023-05-08T12:19:55.682Z,5.20
2023-05-08T12:20:56.182Z,5.20
2023-05-08T12:21:55.716Z,4.80
2023-05-08T12:22:55.711Z,5.40
2023-05-08T12:23:55.916Z,4.80
2023-05-08T12:24:55.518Z,5.00
2023-05-08T12:25:56.344Z,5.30
2023-05-08T12:26:55.421Z,4.90
2023-05-08T12:27:55.336Z,4.70
2023-05-08T12:28:55.367Z,4.80
2023-05-08T12:30:00.122Z,4.60
2023-05-08T12:30:55.562Z,4.90
2023-05-08T12:31:55.297Z,4.40
2023-05-08T12:32:55.325Z,5.00
2023-05-08T12:33:55.291Z,4.60
2023-05-08T12:34:55.360Z,4.60
2023-05-08T12:35:55.414Z,4.70
2023-05-08T12:36:55.317Z,4.50
2023-05-08T12:37:55.497Z,4.70
2023-05-08T12:38:55.373Z,4.60
2023-05-08T12:39:55.314Z,4.50
2023-05-08T12:40:55.229Z,4.60
2023-05-08T12:41:55.294Z,4.70
2023-05-08T12:42:55.204Z,5.20
2023-05-08T12:43:55.189Z,4.50
2023-05-08T12:44:56.346Z,4.40
2023-05-08T12:45:56.236Z,4.30
2023-05-08T12:46:55.282Z,4.70
2023-05-08T12:47:55.310Z,4.50
2023-05-08T12:48:55.237Z,4.10
2023-05-08T12:49:55.140Z,4.40
2023-05-08T12:50:55.122Z,4.70
2023-05-08T12:51:55.341Z,4.90
2023-05-08T12:52:55.065Z,4.70
2023-05-08T12:53:55.117Z,4.50
2023-05-08T12:54:55.106Z,4.20
2023-05-08T12:55:55.732Z,4.30
2023-05-08T12:56:55.247Z,4.20
2023-05-08T12:58:27.616Z,4.30
2023-05-08T12:59:27.480Z,4.70
2023-05-08T13:00:27.508Z,4.70
2023-05-08T13:01:28.651Z,4.30
2023-05-08T13:01:55.854Z,4.30
2023-05-08T13:03:29.807Z,4.30
2023-05-08T13:04:02.280Z,4.10
2023-05-08T13:05:22.731Z,4.00
2023-05-08T13:05:54.995Z,3.90
2023-05-08T13:06:55.064Z,4.40
2023-05-08T13:07:55.795Z,4.10
2023-05-08T13:08:55.162Z,4.20